createdAt,value
2017-02-28T00:00:01.313Z,75.5
2017-02-28T00:00:43.830Z,75.98
2017-02-28T00:01:24.972Z,75.6
2017-02-28T00:02:06.794Z,75.79
2017-02-28T00:02:48.107Z,75.98
2017-02-28T00:03:29.249Z,75.79
2017-02-28T00:04:10.639Z,75.12
2017-02-28T00:04:52.898Z,74.93
2017-02-28T00:05:34.857Z,75.31
2017-02-28T00:06:16.529Z,75.12
2017-02-28T00:06:57.384Z,75.02
2017-02-28T00:07:38.360Z,75.98
2017-02-28T00:08:19.610Z,75.21
2017-02-28T00:09:00.817Z,75.31
2017-02-28T00:09:42.222Z,75.12
2017-02-28T00:10:23.368Z,75.21
2017-02-28T00:11:05.746Z,75.79
2017-02-28T00:11:47.147Z,75.21
2017-02-28T00:12:28.341Z,75.6
2017-02-28T00:13:09.551Z,75.27
2017-02-28T00:13:50.907Z,75.6
2017-02-28T00:14:32.325Z,75.6
2017-02-28T00:15:13.653Z,75.21
2017-02-28T00:15:54.773Z,75.4
2017-02-28T00:16:35.744Z,75.31
2017-02-28T00:17:17.799Z,75.89
2017-02-28T00:17:58.688Z,75.79
2017-02-28T00:18:39.471Z,75.6
2017-02-28T00:19:21.721Z,75.95
2017-02-28T00:20:03.766Z,75.56
2017-02-28T00:20:45.395Z,75.95
2017-02-28T00:21:26.501Z,75.98
2017-02-28T00:22:07.558Z,75.18
2017-02-28T00:22:49.262Z,75.18
2017-02-28T00:23:30.521Z,75.18
2017-02-28T00:24:13.303Z,75.18
2017-02-28T00:24:55.007Z,75.56
2017-02-28T00:25:36.895Z,75.27
2017-02-28T00:26:19.391Z,74.83
2017-02-28T00:27:00.961Z,75.18
2017-02-28T00:27:42.240Z,75.02
2017-02-28T00:28:24.684Z,75.12
2017-02-28T00:29:05.609Z,75.56
2017-02-28T00:29:48.006Z,75.27
2017-02-28T00:30:30.646Z,75.6
2017-02-28T00:31:13.073Z,75.37
2017-02-28T00:31:54.967Z,75.95
2017-02-28T00:32:35.810Z,75.31
2017-02-28T00:33:17.451Z,75.18
2017-02-28T00:34:01.838Z,75.02
2017-02-28T00:34:45.291Z,75.08
2017-02-28T00:35:27.019Z,75.95
2017-02-28T00:36:09.545Z,76.04
2017-02-28T00:36:51.314Z,75.37
2017-02-28T00:37:35.776Z,75.75
2017-02-28T00:38:19.365Z,75.27
2017-02-28T00:39:01.957Z,75.37
2017-02-28T00:39:43.916Z,75.27
2017-02-28T00:40:25.721Z,75.46
2017-02-28T00:42:44.668Z,75.56
2017-02-28T00:43:26.353Z,75.18
2017-02-28T00:44:11.139Z,75.37
2017-02-28T00:44:53.429Z,75.75
2017-02-28T00:45:36.973Z,76.04
2017-02-28T00:46:20.648Z,75.5
2017-02-28T00:47:05.336Z,75.95
2017-02-28T00:47:46.969Z,75.56
2017-02-28T00:48:30.939Z,75.95
2017-02-28T00:49:14.136Z,75.85
2017-02-28T00:49:56.400Z,75.65
2017-02-28T00:50:40.004Z,75.37
2017-02-28T00:51:21.973Z,75.5
2017-02-28T00:52:04.105Z,75.4
2017-02-28T00:52:46.091Z,75.75
2017-02-28T00:53:30.334Z,75.56
2017-02-28T00:54:11.996Z,75.95
2017-02-28T00:54:55.968Z,75.65
2017-02-28T00:55:41.227Z,76.04
2017-02-28T00:56:25.552Z,75.37
2017-02-28T00:57:08.006Z,75.6
2017-02-28T00:57:51.213Z,75.37
2017-02-28T00:58:35.470Z,75.18
2017-02-28T00:59:33.658Z,75.85
2017-02-28T01:00:18.471Z,75.56
2017-02-28T01:01:03.019Z,75.98
2017-02-28T01:01:46.541Z,76.04
2017-02-28T01:02:29.525Z,75.46
2017-02-28T01:03:12.878Z,75.95
2017-02-28T01:03:56.951Z,75.37
2017-02-28T01:04:39.507Z,75.37
2017-02-28T01:05:24.463Z,75.6
2017-02-28T01:06:08.991Z,75.46
2017-02-28T01:06:51.949Z,75.56
2017-02-28T01:07:34.079Z,75.6
2017-02-28T01:08:17.922Z,75.56
2017-02-28T01:09:01.221Z,75.95
2017-02-28T01:09:46.025Z,75.46
2017-02-28T01:10:29.991Z,75.65
2017-02-28T01:11:12.500Z,75.75
2017-02-28T01:12:01.188Z,75.75
2017-02-28T01:12:45.978Z,75.21
2017-02-28T01:13:30.870Z,75.79
2017-02-28T01:14:14.187Z,75.75
2017-02-28T01:14:56.986Z,75.95
2017-02-28T01:15:40.747Z,75.56
2017-02-28T01:16:22.788Z,76.14
2017-02-28T01:17:05.464Z,76.14
2017-02-28T01:17:49.782Z,75.85
2017-02-28T01:18:30.697Z,75.95
2017-02-28T01:19:12.957Z,76.23
2017-02-28T01:19:55.579Z,75.75
2017-02-28T01:20:37.613Z,74.98
2017-02-28T01:21:19.426Z,75.85
2017-02-28T01:22:01.250Z,74.98
2017-02-28T01:22:43.150Z,76.23
2017-02-28T01:23:25.467Z,76.52
2017-02-28T01:24:09.057Z,76.42
2017-02-28T01:24:52.541Z,76.32
2017-02-28T01:25:35.465Z,76.04
2017-02-28T01:26:19.497Z,76.04
2017-02-28T01:27:04.466Z,76.04
2017-02-28T01:27:47.985Z,75.75
2017-02-28T01:28:30.977Z,75.46
2017-02-28T01:29:13.662Z,75.75
2017-02-28T01:29:57.125Z,76.07
2017-02-28T01:30:40.703Z,76.14
2017-02-28T01:31:24.982Z,75.27
2017-02-28T01:32:07.984Z,76.04
2017-02-28T01:32:52.354Z,76.04
2017-02-28T01:33:36.420Z,76.23
2017-02-28T01:34:18.485Z,75.85
2017-02-28T01:35:01.160Z,75.95
2017-02-28T01:35:44.989Z,76.23
2017-02-28T01:36:28.359Z,76.14
2017-02-28T01:37:09.983Z,76.04
2017-02-28T01:37:51.732Z,76.14
2017-02-28T01:38:33.377Z,76.23
2017-02-28T01:39:16.166Z,75.95
2017-02-28T01:39:59.522Z,76.14
2017-02-28T01:40:41.479Z,76.32
2017-02-28T01:41:23.804Z,75.85
2017-02-28T01:42:20.301Z,76.23
2017-02-28T01:43:04.381Z,76.52
2017-02-28T01:43:46.984Z,75.95
2017-02-28T01:44:28.496Z,76.14
2017-02-28T01:45:11.212Z,76.23
2017-02-28T01:45:54.821Z,75.65
2017-02-28T01:46:36.979Z,75.65
2017-02-28T01:47:19.366Z,76.04
2017-02-28T01:48:01.897Z,75.65
2017-02-28T01:48:44.170Z,76.04
2017-02-28T01:49:25.980Z,75.75
2017-02-28T01:50:08.261Z,76.04
2017-02-28T01:50:52.009Z,76.52
2017-02-28T01:51:34.948Z,75.95
2017-02-28T01:52:19.391Z,76.62
2017-02-28T01:53:01.042Z,75.95
2017-02-28T01:53:43.817Z,76.32
2017-02-28T01:54:25.336Z,76.42
2017-02-28T01:55:08.006Z,75.85
2017-02-28T01:55:50.066Z,75.56
2017-02-28T01:56:32.352Z,76.14
2017-02-28T01:57:14.717Z,76.52
2017-02-28T01:57:56.495Z,76.52
2017-02-28T01:58:38.174Z,76.52
2017-02-28T01:59:19.382Z,76.42
2017-02-28T02:00:00.661Z,76.42
2017-02-28T02:00:42.521Z,76.23
2017-02-28T02:03:05.352Z,76.52
2017-02-28T02:03:48.857Z,76.23
2017-02-28T02:04:30.973Z,75.95
2017-02-28T02:05:15.277Z,76.23
2017-02-28T02:05:57.832Z,75.75
2017-02-28T02:06:41.543Z,76.04
2017-02-28T02:07:25.818Z,75.65
2017-02-28T02:08:09.728Z,76.23
2017-02-28T02:08:52.813Z,76.14
2017-02-28T02:09:36.957Z,76.42
2017-02-28T02:10:19.616Z,75.85
2017-02-28T02:11:01.348Z,76.62
2017-02-28T02:11:44.716Z,76.52
2017-02-28T02:12:27.023Z,76.32
2017-02-28T02:13:11.774Z,76.81
2017-02-28T02:13:55.318Z,76.62
2017-02-28T02:14:38.774Z,76.81
2017-02-28T02:15:22.841Z,76.71
2017-02-28T02:16:07.308Z,76.71
2017-02-28T02:16:51.816Z,76.62
2017-02-28T02:17:33.933Z,76.81
2017-02-28T02:18:17.331Z,76.23
2017-02-28T02:19:01.310Z,76.14
2017-02-28T02:19:44.816Z,76.9
2017-02-28T02:20:28.784Z,76.62
2017-02-28T02:21:12.838Z,76.81
2017-02-28T02:21:55.190Z,76.52
2017-02-28T02:23:51.348Z,76.94
2017-02-28T02:24:36.299Z,76.71
2017-02-28T02:25:19.363Z,76.32
2017-02-28T02:26:03.831Z,76.9
2017-02-28T02:26:48.025Z,76.14
2017-02-28T02:27:31.815Z,76.52
2017-02-28T02:28:15.868Z,76.62
2017-02-28T02:28:59.842Z,76.62
2017-02-28T02:29:42.886Z,76.52
2017-02-28T02:30:26.830Z,77.19
2017-02-28T02:31:09.382Z,76.52
2017-02-28T02:31:54.462Z,76.62
2017-02-28T02:32:38.323Z,76.62
2017-02-28T02:33:19.082Z,76.9
2017-02-28T02:34:04.383Z,76.62
2017-02-28T02:34:49.361Z,77
2017-02-28T02:35:33.625Z,77
2017-02-28T02:36:16.348Z,76.42
2017-02-28T02:37:01.328Z,76.71
2017-02-28T02:37:45.520Z,76.62
2017-02-28T02:38:28.769Z,76.81
2017-02-28T02:39:12.505Z,76.42
2017-02-28T02:39:57.283Z,76.62
2017-02-28T02:40:40.235Z,76.42
2017-02-28T02:41:24.357Z,76.81
2017-02-28T02:42:08.415Z,76.62
2017-02-28T02:44:05.667Z,76.62
2017-02-28T02:44:48.487Z,76.32
2017-02-28T02:45:31.581Z,76.42
2017-02-28T02:46:15.315Z,76.81
2017-02-28T02:46:59.280Z,76.9
2017-02-28T02:47:42.841Z,76.62
2017-02-28T02:48:26.292Z,76.62
2017-02-28T02:49:09.302Z,76.81
2017-02-28T02:49:51.459Z,76.52
2017-02-28T02:50:34.442Z,76.42
2017-02-28T02:51:19.263Z,76.81
2017-02-28T02:52:05.168Z,76.9
2017-02-28T02:52:49.818Z,76.71
2017-02-28T02:53:31.780Z,76.9
2017-02-28T02:54:16.768Z,76.81
2017-02-28T02:55:00.767Z,76.62
2017-02-28T02:55:44.792Z,76.62
2017-02-28T02:56:27.825Z,76.71
2017-02-28T02:57:11.838Z,76.81
2017-02-28T02:57:54.352Z,76.62
2017-02-28T02:58:39.338Z,76.71
2017-02-28T02:59:24.338Z,76.62
2017-02-28T03:00:08.455Z,76.62
2017-02-28T03:00:52.377Z,76.81
2017-02-28T03:01:37.360Z,76.62
2017-02-28T03:02:20.551Z,76.62
2017-02-28T03:04:21.659Z,76.62
2017-02-28T03:05:05.522Z,76.52
2017-02-28T03:05:50.507Z,76.62
2017-02-28T03:06:35.513Z,76.42
2017-02-28T03:07:19.485Z,76.62
2017-02-28T03:08:02.640Z,76.62
2017-02-28T03:08:45.495Z,76.42
2017-02-28T03:09:28.458Z,76.23
2017-02-28T03:10:12.571Z,76.62
2017-02-28T03:10:55.983Z,77
2017-02-28T03:11:39.985Z,76.71
2017-02-28T03:12:24.496Z,76.62
2017-02-28T03:13:08.510Z,76.81
2017-02-28T03:13:52.649Z,77.29
2017-02-28T03:14:35.711Z,76.62
2017-02-28T03:15:18.495Z,76.71
2017-02-28T03:16:02.477Z,76.71
2017-02-28T03:16:45.506Z,76.52
2017-02-28T03:17:30.561Z,76.62
2017-02-28T03:18:12.662Z,76.81
2017-02-28T03:18:56.968Z,76.81
2017-02-28T03:19:39.519Z,76.62
2017-02-28T03:20:23.653Z,76.71
2017-02-28T03:21:07.515Z,76.81
2017-02-28T03:21:52.541Z,76.71
2017-02-28T03:22:35.500Z,76.52
2017-02-28T03:23:17.592Z,76.81
2017-02-28T03:25:08.571Z,76.62
2017-02-28T03:25:52.273Z,76.52
2017-02-28T03:26:33.906Z,76.62
2017-02-28T03:27:17.765Z,76.9
2017-02-28T03:28:01.244Z,76.71
2017-02-28T03:28:45.262Z,76.9
2017-02-28T03:29:28.173Z,76.52
2017-02-28T03:30:12.225Z,76.71
2017-02-28T03:30:56.740Z,76.32
2017-02-28T03:31:39.786Z,77
2017-02-28T03:32:24.754Z,76.71
2017-02-28T03:33:10.718Z,76.71
2017-02-28T03:33:53.908Z,76.52
2017-02-28T03:34:37.784Z,76.52
2017-02-28T03:35:21.735Z,76.71
2017-02-28T03:36:06.815Z,76.52
2017-02-28T03:36:50.251Z,76.32
2017-02-28T03:37:32.970Z,77
2017-02-28T03:38:17.182Z,76.32
2017-02-28T03:39:01.006Z,77.19
2017-02-28T03:39:43.868Z,76.52
2017-02-28T03:40:26.311Z,77.09
2017-02-28T03:41:10.713Z,76.14
2017-02-28T03:41:53.940Z,76.42
2017-02-28T03:42:38.735Z,76.04
2017-02-28T03:43:23.044Z,76.81
2017-02-28T03:44:06.607Z,76.32
2017-02-28T03:44:50.255Z,76.62
2017-02-28T03:45:32.715Z,76.62
2017-02-28T03:46:15.279Z,76.71
2017-02-28T03:46:59.263Z,77
2017-02-28T03:47:43.070Z,76.81
2017-02-28T03:49:46.323Z,76.71
2017-02-28T03:50:30.877Z,76.81
2017-02-28T03:51:14.011Z,76.71
2017-02-28T03:51:57.856Z,76.71
2017-02-28T03:52:39.332Z,76.81
2017-02-28T03:53:21.863Z,76.81
2017-02-28T03:54:04.355Z,76.71
2017-02-28T03:54:48.371Z,77
2017-02-28T03:55:32.352Z,76.52
2017-02-28T03:56:16.389Z,76.62
2017-02-28T03:56:58.868Z,76.71
2017-02-28T03:57:43.061Z,76.62
2017-02-28T03:58:27.362Z,76.81
2017-02-28T03:59:11.323Z,76.81
2017-02-28T03:59:53.977Z,76.81
2017-02-28T04:00:37.717Z,76.71
2017-02-28T04:03:01.907Z,76.81
2017-02-28T04:03:44.173Z,76.81
2017-02-28T04:05:51.709Z,76.81
2017-02-28T04:06:34.458Z,76.62
2017-02-28T04:07:18.587Z,76.42
2017-02-28T04:08:00.221Z,76.71
2017-02-28T04:08:42.548Z,76.71
2017-02-28T04:09:25.719Z,76.81
2017-02-28T04:10:10.218Z,76.71
2017-02-28T04:10:53.302Z,76.71
2017-02-28T04:11:37.243Z,76.9
2017-02-28T04:12:22.105Z,76.32
2017-02-28T04:13:03.734Z,76.23
2017-02-28T04:13:47.272Z,77.09
2017-02-28T04:14:31.512Z,76.71
2017-02-28T04:15:13.528Z,76.14
2017-02-28T04:15:56.384Z,76.81
2017-02-28T04:18:13.688Z,76.62
2017-02-28T04:18:58.386Z,77
2017-02-28T04:19:42.313Z,76.42
2017-02-28T04:20:25.469Z,76.23
2017-02-28T04:21:08.395Z,76.42
2017-02-28T04:21:50.591Z,76.42
2017-02-28T04:22:33.540Z,76.62
2017-02-28T04:23:16.583Z,76.14
2017-02-28T04:24:00.562Z,76.04
2017-02-28T04:24:43.046Z,76.23
2017-02-28T04:25:26.114Z,76.04
2017-02-28T04:26:09.454Z,76.23
2017-02-28T04:26:53.537Z,76.62
2017-02-28T04:27:38.061Z,76.14
2017-02-28T04:28:21.573Z,76.62
2017-02-28T04:29:14.736Z,76.62
2017-02-28T04:30:00.492Z,76.32
2017-02-28T04:30:43.039Z,76.04
2017-02-28T04:31:25.245Z,76.62
2017-02-28T04:32:09.813Z,76.14
2017-02-28T04:32:53.683Z,76.23
2017-02-28T04:33:38.055Z,76.14
2017-02-28T04:34:19.753Z,76.52
2017-02-28T04:35:03.104Z,76.14
2017-02-28T04:35:46.590Z,76.14
2017-02-28T04:36:31.630Z,76.14
2017-02-28T04:37:14.106Z,76.32
2017-02-28T04:37:58.410Z,76.62
2017-02-28T04:38:42.111Z,76.14
2017-02-28T04:39:26.565Z,76.32
2017-02-28T04:40:11.568Z,76.32
2017-02-28T04:40:55.610Z,76.81
2017-02-28T04:41:39.653Z,77.19
2017-02-28T04:42:24.735Z,76.62
2017-02-28T04:43:09.646Z,76.04
2017-02-28T04:43:53.674Z,76.71
2017-02-28T04:46:12.323Z,76.81
2017-02-28T04:46:55.278Z,76.62
2017-02-28T04:47:38.832Z,77
2017-02-28T04:48:22.782Z,76.14
2017-02-28T04:49:06.791Z,76.14
2017-02-28T04:49:50.798Z,76.42
2017-02-28T04:50:33.526Z,76.42
2017-02-28T04:51:17.738Z,76.71
2017-02-28T04:52:02.793Z,76.23
2017-02-28T04:52:45.986Z,76.32
2017-02-28T04:53:28.249Z,76.81
2017-02-28T04:54:11.338Z,76.71
2017-02-28T04:54:54.806Z,76.23
2017-02-28T04:55:37.786Z,76.23
2017-02-28T04:56:20.284Z,76.62
2017-02-28T04:57:03.809Z,76.32
2017-02-28T04:57:47.081Z,76.52
2017-02-28T04:58:31.800Z,76.52
2017-02-28T04:59:15.803Z,76.62
2017-02-28T05:00:00.756Z,76.04
2017-02-28T05:00:44.395Z,76.32
2017-02-28T05:01:26.180Z,76.04
2017-02-28T05:02:10.745Z,76.62
2017-02-28T05:02:53.505Z,76.81
2017-02-28T05:03:36.809Z,76.52
2017-02-28T05:04:20.448Z,76.71
2017-02-28T05:06:38.953Z,76.62
2017-02-28T05:07:21.908Z,77
2017-02-28T05:08:04.966Z,76.9
2017-02-28T05:08:49.253Z,76.52
2017-02-28T05:09:32.968Z,76.71
2017-02-28T05:10:15.582Z,76.62
2017-02-28T05:10:58.910Z,76.71
2017-02-28T05:11:41.905Z,76.52
2017-02-28T05:12:26.901Z,76.71
2017-02-28T05:13:12.961Z,77.29
2017-02-28T05:13:56.965Z,76.71
2017-02-28T05:14:39.211Z,76.62
2017-02-28T05:15:22.562Z,76.62
2017-02-28T05:16:06.424Z,76.62
2017-02-28T05:17:00.409Z,77
2017-02-28T05:17:44.978Z,76.81
2017-02-28T05:18:28.909Z,77
2017-02-28T05:19:11.919Z,76.71
2017-02-28T05:19:56.953Z,76.52
2017-02-28T05:20:39.249Z,76.52
2017-02-28T05:21:22.957Z,76.81
2017-02-28T05:22:04.926Z,77.09
2017-02-28T05:22:47.914Z,76.62
2017-02-28T05:23:31.463Z,76.62
2017-02-28T05:24:14.931Z,76.9
2017-02-28T05:24:59.234Z,76.9
2017-02-28T05:25:43.955Z,76.71
2017-02-28T05:26:28.816Z,76.9
2017-02-28T05:27:10.947Z,76.81
2017-02-28T05:27:54.125Z,77
2017-02-28T05:28:38.079Z,76.62
2017-02-28T05:29:21.428Z,76.9
2017-02-28T05:30:05.574Z,76.9
2017-02-28T05:30:52.859Z,76.62
2017-02-28T05:31:35.999Z,76.71
2017-02-28T05:32:20.969Z,76.9
2017-02-28T05:33:05.952Z,76.71
2017-02-28T05:33:50.476Z,77
2017-02-28T05:34:33.465Z,76.71
2017-02-28T05:35:17.569Z,76.71
2017-02-28T05:36:02.959Z,76.9
2017-02-28T05:36:44.403Z,76.52
2017-02-28T05:37:26.963Z,76.71
2017-02-28T05:38:10.934Z,76.42
2017-02-28T05:38:54.944Z,76.71
2017-02-28T05:39:38.945Z,76.71
2017-02-28T05:40:22.008Z,76.42
2017-02-28T05:41:04.920Z,76.52
2017-02-28T05:41:47.775Z,76.52
2017-02-28T05:42:29.285Z,76.71
2017-02-28T05:43:10.512Z,76.62
2017-02-28T05:43:53.481Z,76.71
2017-02-28T05:44:38.436Z,76.9
2017-02-28T05:45:28.907Z,76.81
2017-02-28T05:46:10.228Z,76.62
2017-02-28T05:46:53.446Z,76.62
2017-02-28T05:47:37.458Z,76.71
2017-02-28T05:48:19.297Z,76.52
2017-02-28T05:49:02.314Z,76.9
2017-02-28T05:49:44.933Z,76.52
2017-02-28T05:50:28.046Z,76.81
2017-02-28T05:51:11.426Z,76.9
2017-02-28T05:51:52.939Z,76.71
2017-02-28T05:52:34.506Z,76.81
2017-02-28T05:53:16.635Z,77
2017-02-28T05:53:58.115Z,76.81
2017-02-28T05:54:41.078Z,76.62
2017-02-28T05:55:23.990Z,76.42
2017-02-28T05:56:08.965Z,76.52
2017-02-28T05:56:51.502Z,76.71
2017-02-28T05:57:35.437Z,77
2017-02-28T05:58:19.293Z,76.62
2017-02-28T05:59:02.589Z,76.81
2017-02-28T05:59:46.451Z,76.81
2017-02-28T06:00:30.589Z,76.81
2017-02-28T06:01:14.558Z,76.71
2017-02-28T06:01:58.453Z,76.81
2017-02-28T06:02:42.514Z,76.71
2017-02-28T06:03:25.982Z,77
2017-02-28T06:04:10.163Z,76.71
2017-02-28T06:04:52.550Z,76.81
2017-02-28T06:07:10.757Z,76.52
2017-02-28T06:07:53.968Z,76.81
2017-02-28T06:08:37.609Z,76.81
2017-02-28T06:09:19.370Z,76.9
2017-02-28T06:10:03.297Z,76.62
2017-02-28T06:10:45.991Z,76.81
2017-02-28T06:11:29.103Z,76.52
2017-02-28T06:12:13.080Z,77
2017-02-28T06:12:56.830Z,76.81
2017-02-28T06:13:39.339Z,77
2017-02-28T06:14:23.097Z,76.71
2017-02-28T06:15:07.179Z,76.42
2017-02-28T06:15:51.138Z,77.09
2017-02-28T06:16:34.602Z,77
2017-02-28T06:17:31.124Z,76.62
2017-02-28T06:18:13.431Z,76.62
2017-02-28T06:18:57.143Z,76.81
2017-02-28T06:19:40.634Z,76.62
2017-02-28T06:20:24.679Z,76.71
2017-02-28T06:21:09.341Z,76.62
2017-02-28T06:21:52.108Z,76.62
2017-02-28T06:22:37.221Z,76.52
2017-02-28T06:23:20.590Z,76.9
2017-02-28T06:24:04.597Z,76.32
2017-02-28T06:24:48.126Z,77.19
2017-02-28T06:27:07.771Z,76.52
2017-02-28T06:27:52.774Z,77
2017-02-28T06:28:36.840Z,77
2017-02-28T06:29:19.376Z,76.62
2017-02-28T06:30:02.969Z,76.62
2017-02-28T06:30:44.160Z,76.52
2017-02-28T06:31:25.566Z,76.62
2017-02-28T06:32:07.221Z,76.52
2017-02-28T06:32:49.361Z,76.62
2017-02-28T06:33:32.279Z,76.71
2017-02-28T06:34:16.771Z,76.71
2017-02-28T06:35:01.257Z,76.71
2017-02-28T06:35:46.267Z,77.09
2017-02-28T06:36:29.125Z,76.62
2017-02-28T06:37:11.067Z,76.81
2017-02-28T06:37:53.744Z,76.52
2017-02-28T06:38:38.784Z,76.9
2017-02-28T06:39:22.230Z,77.09
2017-02-28T06:40:08.315Z,76.62
2017-02-28T06:40:51.273Z,76.52
2017-02-28T06:41:33.824Z,76.52
2017-02-28T06:42:18.003Z,76.32
2017-02-28T06:43:00.764Z,76.42
2017-02-28T06:43:45.286Z,77
2017-02-28T06:44:28.414Z,76.9
2017-02-28T06:45:12.436Z,76.71
2017-02-28T06:45:57.263Z,76.71
2017-02-28T06:46:40.262Z,76.81
2017-02-28T06:47:25.267Z,76.71
2017-02-28T06:48:10.176Z,77
2017-02-28T06:48:53.460Z,76.81
2017-02-28T06:49:37.341Z,76.9
2017-02-28T06:50:20.678Z,76.81
2017-02-28T06:51:04.806Z,76.9
2017-02-28T06:51:48.814Z,76.71
2017-02-28T06:52:32.761Z,76.62
2017-02-28T06:53:16.850Z,76.62
2017-02-28T06:54:00.493Z,76.71
2017-02-28T06:54:45.321Z,76.62
2017-02-28T06:55:33.399Z,76.71
2017-02-28T06:56:16.272Z,76.9
2017-02-28T06:56:58.659Z,76.71
2017-02-28T06:57:42.284Z,76.71
2017-02-28T06:58:29.385Z,76.71
2017-02-28T06:59:14.259Z,76.52
2017-02-28T06:59:58.779Z,76.81
2017-02-28T07:00:43.275Z,77.29
2017-02-28T07:01:26.345Z,77
2017-02-28T07:02:09.390Z,77.19
2017-02-28T07:02:53.388Z,77.29
2017-02-28T07:03:37.919Z,76.81
2017-02-28T07:04:21.930Z,77.29
2017-02-28T07:05:04.869Z,77.29
2017-02-28T07:07:30.483Z,77.09
2017-02-28T07:08:13.258Z,77.29
2017-02-28T07:08:58.113Z,77.38
2017-02-28T07:09:41.440Z,77.29
2017-02-28T07:10:26.442Z,77.09
2017-02-28T07:11:08.737Z,76.81
2017-02-28T07:11:53.422Z,77.19
2017-02-28T07:12:37.453Z,77
2017-02-28T07:13:21.515Z,77.29
2017-02-28T07:14:05.439Z,77.19
2017-02-28T07:14:47.867Z,77.19
2017-02-28T07:15:32.962Z,77.38
2017-02-28T07:16:16.504Z,77
2017-02-28T07:17:00.515Z,77
2017-02-28T07:17:45.450Z,77.09
2017-02-28T07:18:30.473Z,76.81
2017-02-28T07:19:15.323Z,77.38
2017-02-28T07:19:58.453Z,76.81
2017-02-28T07:20:43.432Z,76.62
2017-02-28T07:21:27.514Z,77.48
2017-02-28T07:22:12.539Z,76.62
2017-02-28T07:22:56.685Z,77.29
2017-02-28T07:23:40.449Z,77
2017-02-28T07:24:24.850Z,76.71
2017-02-28T07:25:09.428Z,77.48
2017-02-28T07:25:53.434Z,77.29
2017-02-28T07:27:50.284Z,77.29
2017-02-28T07:28:33.354Z,77.19
2017-02-28T07:29:15.525Z,76.81
2017-02-28T07:29:58.097Z,77.38
2017-02-28T07:30:43.069Z,76.9
2017-02-28T07:31:27.088Z,77
2017-02-28T07:32:09.463Z,76.71
2017-02-28T07:32:53.375Z,77.09
2017-02-28T07:33:37.555Z,77.38
2017-02-28T07:34:20.717Z,77.09
2017-02-28T07:35:05.595Z,77.09
2017-02-28T07:35:50.618Z,77.19
2017-02-28T07:36:35.055Z,77.29
2017-02-28T07:37:18.231Z,77.29
2017-02-28T07:38:02.100Z,76.81
2017-02-28T07:38:45.588Z,77.38
2017-02-28T07:39:30.638Z,77.19
2017-02-28T07:40:14.590Z,77.38
2017-02-28T07:40:58.112Z,77
2017-02-28T07:41:43.081Z,77.38
2017-02-28T07:42:26.123Z,77.09
2017-02-28T07:43:09.496Z,77.09
2017-02-28T07:43:53.350Z,77.19
2017-02-28T07:44:34.634Z,77.09
2017-02-28T07:45:19.046Z,77.09
2017-02-28T07:46:03.581Z,77.09
2017-02-28T07:46:47.736Z,77.19
2017-02-28T07:47:32.592Z,77.19
2017-02-28T07:48:16.049Z,77.19
2017-02-28T07:49:00.799Z,77.19
2017-02-28T07:49:44.562Z,77.38
2017-02-28T07:50:29.570Z,77.58
2017-02-28T07:51:13.763Z,77.38
2017-02-28T07:51:58.581Z,76.9
2017-02-28T07:52:43.009Z,77.29
2017-02-28T07:53:24.067Z,76.9
2017-02-28T07:54:06.817Z,77.09
2017-02-28T07:54:49.302Z,77.38
2017-02-28T07:55:33.355Z,76.71
2017-02-28T07:56:16.583Z,76.62
2017-02-28T07:56:59.516Z,76.9
2017-02-28T07:57:42.156Z,76.52
2017-02-28T07:58:24.587Z,76.62
2017-02-28T07:59:08.561Z,76.81
2017-02-28T07:59:52.127Z,77.09
2017-02-28T08:00:37.100Z,77.19
2017-02-28T08:01:21.102Z,77.29
2017-02-28T08:02:05.145Z,77.29
2017-02-28T08:02:49.131Z,77.58
2017-02-28T08:03:33.106Z,77.58
2017-02-28T08:04:17.621Z,77.29
2017-02-28T08:05:00.743Z,77.76
2017-02-28T08:05:42.785Z,77.67
2017-02-28T08:06:23.830Z,77.38
2017-02-28T08:07:06.091Z,77.67
2017-02-28T08:07:47.478Z,77.58
2017-02-28T08:08:29.048Z,77.67
2017-02-28T08:09:12.572Z,77.67
2017-02-28T08:09:55.334Z,77.29
2017-02-28T08:10:38.564Z,77.09
2017-02-28T08:11:22.847Z,77
2017-02-28T08:12:05.497Z,76.71
2017-02-28T08:12:50.599Z,76.71
2017-02-28T08:13:33.346Z,76.52
2017-02-28T08:14:18.105Z,76.71
2017-02-28T08:15:01.591Z,76.81
2017-02-28T08:15:44.603Z,76.62
2017-02-28T08:16:28.074Z,76.23
2017-02-28T08:17:11.115Z,76.14
2017-02-28T08:17:53.111Z,75.85
2017-02-28T08:18:36.639Z,76.23
2017-02-28T08:19:20.598Z,74.98
2017-02-28T08:20:05.577Z,76.14
2017-02-28T08:20:48.656Z,75.46
2017-02-28T08:21:33.382Z,75.37
2017-02-28T08:22:16.567Z,75.56
2017-02-28T08:22:59.114Z,75.18
2017-02-28T08:23:40.911Z,75.18
2017-02-28T08:24:22.978Z,75.18
2017-02-28T08:25:06.620Z,75.18
2017-02-28T08:25:50.570Z,74.89
2017-02-28T08:26:34.583Z,75.37
2017-02-28T08:27:19.597Z,74.98
2017-02-28T08:28:02.579Z,74.41
2017-02-28T08:28:46.505Z,74.6
2017-02-28T08:29:29.477Z,74.51
2017-02-28T08:30:14.609Z,74.12
2017-02-28T08:30:58.098Z,74.12
2017-02-28T08:31:41.297Z,74.22
2017-02-28T08:32:24.613Z,74.41
2017-02-28T08:33:07.761Z,74.51
2017-02-28T08:33:49.633Z,74.31
2017-02-28T08:34:33.097Z,74.12
2017-02-28T08:35:14.110Z,73.74
2017-02-28T08:35:55.778Z,73.74
2017-02-28T08:36:37.847Z,74.02
2017-02-28T08:37:21.101Z,73.74
2017-02-28T08:38:03.840Z,73.83
2017-02-28T08:38:45.610Z,73.93
2017-02-28T08:39:28.040Z,73.65
2017-02-28T08:40:09.502Z,73.45
2017-02-28T08:40:51.592Z,73.55
2017-02-28T08:41:33.770Z,73.65
2017-02-28T08:42:17.598Z,73.65
2017-02-28T08:42:59.284Z,73.16
2017-02-28T08:43:42.597Z,73.16
2017-02-28T08:44:24.021Z,73.07
2017-02-28T08:45:05.748Z,72.88
2017-02-28T08:45:48.456Z,72.97
2017-02-28T08:48:07.757Z,72.59
2017-02-28T08:48:51.954Z,72.78
2017-02-28T08:49:35.046Z,72.68
2017-02-28T08:50:18.830Z,72.78
2017-02-28T08:51:02.815Z,72.97
2017-02-28T08:51:45.235Z,72.39
2017-02-28T08:52:27.597Z,72.3
2017-02-28T08:53:09.291Z,72.39
2017-02-28T08:53:50.514Z,72.39
2017-02-28T08:54:34.765Z,72.39
2017-02-28T08:55:18.445Z,72.59
2017-02-28T08:56:00.811Z,72.39
2017-02-28T08:56:42.710Z,72.39
2017-02-28T08:57:26.510Z,72.2
2017-02-28T08:58:11.299Z,71.92
2017-02-28T08:58:53.615Z,72.2
2017-02-28T08:59:37.009Z,72.11
2017-02-28T09:00:19.720Z,72.49
2017-02-28T09:01:03.272Z,72.39
2017-02-28T09:01:45.788Z,72.3
2017-02-28T09:02:29.684Z,72.39
2017-02-28T09:03:13.297Z,72.11
2017-02-28T09:03:56.611Z,72.11
2017-02-28T09:04:39.329Z,72.39
2017-02-28T09:05:22.291Z,72.39
2017-02-28T09:06:05.804Z,72.3
2017-02-28T09:06:49.701Z,72.39
2017-02-28T09:07:33.278Z,72.3
2017-02-28T09:08:15.793Z,72.39
2017-02-28T09:08:58.038Z,72.2
2017-02-28T09:09:41.374Z,72.3
2017-02-28T09:10:23.677Z,72.2
2017-02-28T09:11:06.766Z,71.92
2017-02-28T09:11:49.373Z,72.43
2017-02-28T09:12:33.284Z,72.2
2017-02-28T09:13:17.319Z,72.24
2017-02-28T09:14:00.467Z,72.14
2017-02-28T09:14:45.319Z,72.14
2017-02-28T09:15:29.255Z,72.33
2017-02-28T09:16:13.273Z,72.53
2017-02-28T09:16:59.712Z,72.24
2017-02-28T09:17:43.309Z,72.43
2017-02-28T09:18:27.269Z,73.1
2017-02-28T09:19:10.835Z,73.97
2017-02-28T09:19:55.350Z,74.26
2017-02-28T09:20:38.733Z,74.44
2017-02-28T09:21:23.768Z,74.35
2017-02-28T09:22:08.800Z,74.35
2017-02-28T09:22:52.861Z,73.97
2017-02-28T09:23:37.772Z,73.87
2017-02-28T09:24:21.322Z,73.87
2017-02-28T09:25:04.295Z,74.16
2017-02-28T09:25:48.489Z,73.97
2017-02-28T09:26:31.619Z,73.97
2017-02-28T09:28:28.592Z,73.87
2017-02-28T09:29:10.612Z,73.87
2017-02-28T09:29:53.828Z,73.97
2017-02-28T09:30:36.105Z,73.39
2017-02-28T09:31:21.105Z,73.58
2017-02-28T09:32:04.086Z,73.39
2017-02-28T09:32:49.605Z,73.2
2017-02-28T09:33:33.807Z,73.58
2017-02-28T09:34:17.134Z,73.39
2017-02-28T09:34:59.753Z,73.58
2017-02-28T09:35:44.108Z,73.39
2017-02-28T09:36:26.745Z,73.58
2017-02-28T09:37:10.906Z,73.49
2017-02-28T09:37:53.724Z,73.2
2017-02-28T09:38:37.129Z,73.3
2017-02-28T09:39:18.991Z,73.49
2017-02-28T09:40:00.406Z,73.2
2017-02-28T09:40:43.767Z,73.1
2017-02-28T09:41:27.666Z,73.68
2017-02-28T09:42:11.681Z,73.68
2017-02-28T09:42:53.588Z,73.1
2017-02-28T09:43:35.367Z,73.58
2017-02-28T09:44:19.773Z,73.49
2017-02-28T09:45:03.613Z,74.35
2017-02-28T09:45:47.096Z,74.44
2017-02-28T09:46:31.094Z,75.6
2017-02-28T09:47:15.100Z,76.75
2017-02-28T09:47:59.082Z,77.04
2017-02-28T09:48:43.114Z,77.61